AirNav   Everest Fuels
 
 1245 users online  

7AZ4 Rancho Relaxo Airport
Pearce, Arizona, USA

GOING TO PEARCE?


FAA INFORMATION EFFECTIVE 16 JULY 2020

Location

FAA Identifier: 7AZ4
Lat/Long: 31-56-19.0000N 109-35-18.0000W
31-56.316667N 109-35.300000W
31.9386111,-109.5883333
(estimated)
Elevation: 4475 ft. / 1364 m (estimated)
From city: 15 miles E of PEARCE, AZ
Time zone: UTC -7 (year round; does not observe DST)
Zip code: 85625

Airport Operations

Airport use: Private use. Permission required prior to landing
Activation date: 07/2011
Control tower: no
ARTCC: ALBUQUERQUE CENTER
FSS: PRESCOTT FLIGHT SERVICE STATION
Attendance: UNATNDD
Wind indicator: yes
Segmented circle: no

Nearby radio navigation aids

VOR radial/distance  VOR name  Freq  Var
SSOr207/25.8SAN SIMON VORTAC115.4013E
DUGr348/28.0DOUGLAS VORTAC108.8013E

Airport Services

Runway Information

Runway 3/21

Dimensions: 2500 x 40 ft. / 762 x 12 m
Surface: gravel, in good condition
RUNWAY 3  RUNWAY 21
Traffic pattern: leftleft

Airport Ownership and Management from official FAA records

Ownership: Privately-owned
Owner: MARK OTTMER
PO BOX 774
PEARCE, AZ 85625
Phone 360-298-0842
Manager: MARK OTTMER
PO BOX 774
PEARCE, AZ 85625
Phone 360-298-0842

Airport Operational Statistics

Aircraft based on the field: 1
Single engine airplanes: 1
    

Additional Remarks

FOR CD CTC ALBUQUERQUE ARTCC AT 505-856-4861.

Instrument Procedures

There are no published instrument procedures at 7AZ4.

Some nearby airports with instrument procedures:

P33 - Cochise County Airport (24 nm NW)
KDUG - Bisbee Douglas International Airport (28 nm S)
KFHU - Sierra Vista Municipal Airport-Libby Army Airfield (44 nm SW)
KSAD - Safford Regional Airport (55 nm N)
KCFT - Greenlee County Airport (64 nm N)
 
Loc | Ops | Rwys | IFR | FBO | Links
Com | Nav | Svcs | Stats | Notes
Aerial photo
No photo
 
Airport distance calculator
Flying to Rancho Relaxo Airport? Find the distance to fly.

From to 7AZ4

Sunrise and sunset
Times for 04-Aug-2020
 Local
(UTC-7)
 Zulu
(UTC)
Morning civil twilight05:1112:11
Sunrise05:3712:37
Sunset19:1102:11
Evening civil twilight19:3802:38

Current date and time
Zulu (UTC)  04-Aug-2020 22:45:42
Local (UTC-7)  04-Aug-2020 15:45:42
 
METAR
KFHU 
43nm SW 
042158Z AUTO 00000KT 10SM SCT100 BKN140 35/08 A3015 RMK AO2 SLP127 T03450079
KALK 
47nm SW 
042156Z AUTO 24005KT 10SM CLR 34/07 A3016 RMK AO2 SLP111 T03390072 $
TAF
NOTAMs
Click for the latest NOTAMs
NOTAMs are issued by the DoD/FAA and will open in a separate window not controlled by AirNav.

 

 
 

Would you like to see your business listed on this page?

 If your business provides an interesting product or service to pilots, flight crews, aircraft, or users of the Rancho Relaxo Airport, you should consider listing it here.  To start the listing process, click on the button below
 
Add a business
 

Other Pages about Rancho Relaxo Airport

Update a link
 
Copyright © AirNav, LLC. All rights reserved. Privacy Policy  Contact